Terminal Aerodrome Forecast
Issued by NWS Blacksburg, VA

Home | Current Version | Previous Version | Text Only | Print | Product List | Glossary On
Versions: 1 2 3 4 5 6 7 8 9 10 11 12 13 14 15 16 17 18 19 20 21 22 23 24 25 26 27 28 29
000
FTUS41 KRNK 030529
TAFDAN
TAF
KDAN 030529Z 0306/0406 00000KT 3SM BR VCSH SCT015 BKN040
     FM031200 06004KT P6SM VCSH BKN015
     FM031500 13005KT P6SM VCSH BKN020
     FM031900 18006KT P6SM -SHRA VCTS BKN030CB
      TEMPO 0319/0323 2SM -TSRA BR OVC015CB
     FM040300 VRB04KT 5SM BR BKN025 OVC050
      TEMPO 0403/0406 OVC050=

USA.gov is the U.S. government's official web portal to all federal, state and local government web resources and services.